Terminal Aerodrome Forecast
Issued by NWS

Home | Current Version | Previous Version | Text Only | Print | Product List | Glossary On
Versions: 1 2 3 4 5 6 7 8 9 10 11 12 13 14 15 16 17 18 19 20 21
396
FTUS46 KSEW 171126
TAFOLM
TAF
KOLM 171126Z 1712/1812 21004KT P6SM SCT015 OVC025
      TEMPO 1714/1716 BKN015 OVC025
     FM171900 VRB03KT P6SM BKN025
     FM172100 VRB03KT P6SM SCT250
     FM172300 36006KT P6SM SCT250
     FM180600 VRB03KT P6SM SCT250
     FM181100 20004KT P6SM BKN030=

USA.gov is the U.S. government's official web portal to all federal, state and local government web resources and services.